createdAt,value
2018-08-16T00:00:00.535Z,18.31
2018-08-16T00:01:00.466Z,18.25
2018-08-16T00:02:00.573Z,18.24
2018-08-16T00:03:00.418Z,18.25
2018-08-16T00:04:00.466Z,18.21
2018-08-16T00:05:00.382Z,18.18
2018-08-16T00:06:00.473Z,18.18
2018-08-16T00:07:00.335Z,18.22
2018-08-16T00:08:00.391Z,18.15
2018-08-16T00:09:00.292Z,18.18
2018-08-16T00:10:00.296Z,18.19
2018-08-16T00:11:00.251Z,18.22
2018-08-16T00:12:00.313Z,18.15
2018-08-16T00:13:00.203Z,18.15
2018-08-16T00:14:00.229Z,18.13
2018-08-16T00:15:00.163Z,18.18
2018-08-16T00:16:00.240Z,18.15
2018-08-16T00:17:00.119Z,18.15
2018-08-16T00:18:00.152Z,18.22
2018-08-16T00:19:00.076Z,18.18
2018-08-16T00:20:00.168Z,18.07
2018-08-16T00:21:00.029Z,18.10
2018-08-16T00:22:00.081Z,18.10
2018-08-16T00:22:59.988Z,18.04
2018-08-16T00:23:59.964Z,18.04
2018-08-16T00:24:59.947Z,17.94
2018-08-16T00:26:00.004Z,18.00
2018-08-16T00:26:59.904Z,18.00
2018-08-16T00:27:59.910Z,18.02
2018-08-16T00:28:59.924Z,17.95
2018-08-16T00:29:59.838Z,17.95
2018-08-16T00:30:59.929Z,17.87
2018-08-16T00:31:59.801Z,17.91
2018-08-16T00:32:59.849Z,17.92
2018-08-16T00:33:59.751Z,17.91
2018-08-16T00:34:59.780Z,17.99
2018-08-16T00:35:59.737Z,17.92
2018-08-16T00:36:59.774Z,17.95
2018-08-16T00:37:59.661Z,17.97
2018-08-16T00:38:59.690Z,17.95
2018-08-16T00:39:59.618Z,17.88
2018-08-16T00:40:59.698Z,17.82
2018-08-16T00:41:59.575Z,17.85
2018-08-16T00:42:59.555Z,17.89
2018-08-16T00:43:59.531Z,17.81
2018-08-16T00:44:59.624Z,17.82
2018-08-16T00:45:59.490Z,17.87
2018-08-16T00:46:59.467Z,17.88
2018-08-16T00:47:59.544Z,17.79
2018-08-16T00:48:59.423Z,17.92
2018-08-16T00:49:59.457Z,17.85
2018-08-16T00:50:59.376Z,17.84
2018-08-16T00:51:59.467Z,17.81
2018-08-16T00:52:59.340Z,17.82
2018-08-16T00:53:59.381Z,17.84
2018-08-16T00:54:59.293Z,17.82
2018-08-16T00:55:59.295Z,17.89
2018-08-16T00:56:59.244Z,17.89
2018-08-16T00:57:59.313Z,17.78
2018-08-16T00:58:59.206Z,17.85
2018-08-16T00:59:59.217Z,17.88
2018-08-16T01:00:59.181Z,17.88
2018-08-16T01:01:59.234Z,17.78
2018-08-16T01:02:59.117Z,17.79
2018-08-16T01:03:59.092Z,17.81
2018-08-16T01:04:59.166Z,17.81
2018-08-16T01:05:59.051Z,17.87
2018-08-16T01:06:59.059Z,17.87
2018-08-16T01:07:59.011Z,17.82
2018-08-16T01:08:59.077Z,17.81
2018-08-16T01:09:58.961Z,17.91
2018-08-16T01:10:58.983Z,17.76
2018-08-16T01:11:58.923Z,17.78
2018-08-16T01:12:59.000Z,17.87
2018-08-16T01:13:58.873Z,17.81
2018-08-16T01:14:59.851Z,17.91
2018-08-16T01:15:58.832Z,17.81
2018-08-16T01:16:58.824Z,17.79
2018-08-16T01:17:58.779Z,17.79
2018-08-16T01:18:58.761Z,17.79
2018-08-16T01:19:58.744Z,17.78
2018-08-16T01:20:58.749Z,17.69
2018-08-16T01:21:58.701Z,17.78
2018-08-16T01:22:58.765Z,17.66
2018-08-16T01:23:58.668Z,17.79
2018-08-16T01:24:58.645Z,17.78
2018-08-16T01:25:58.687Z,17.71
2018-08-16T01:26:58.592Z,17.69
2018-08-16T01:27:58.598Z,17.73
2018-08-16T01:28:58.543Z,17.70
2018-08-16T01:29:58.612Z,17.69
2018-08-16T01:30:58.508Z,17.76
2018-08-16T01:31:58.514Z,17.69
2018-08-16T01:32:58.454Z,17.70
2018-08-16T01:33:58.533Z,17.73
2018-08-16T01:34:58.411Z,17.73
2018-08-16T01:35:58.455Z,17.70
2018-08-16T01:36:58.369Z,17.67
2018-08-16T01:37:58.365Z,17.63
2018-08-16T01:38:58.321Z,17.59
2018-08-16T01:39:58.379Z,17.63
2018-08-16T01:40:58.283Z,17.69
2018-08-16T01:41:58.254Z,17.59
2018-08-16T01:42:58.233Z,17.63
2018-08-16T01:43:58.300Z,17.62
2018-08-16T01:44:58.192Z,17.63
2018-08-16T01:45:58.221Z,17.63
2018-08-16T01:46:58.163Z,17.66
2018-08-16T01:47:58.232Z,17.64
2018-08-16T01:48:58.108Z,17.66
2018-08-16T01:49:58.082Z,17.66
2018-08-16T01:50:58.050Z,17.59
2018-08-16T01:51:58.052Z,17.62
2018-08-16T01:52:58.016Z,17.64
2018-08-16T01:53:58.002Z,17.62
2018-08-16T01:54:57.971Z,17.55
2018-08-16T01:55:57.950Z,17.57
2018-08-16T01:56:57.922Z,17.57
2018-08-16T01:57:57.904Z,17.53
2018-08-16T01:58:57.894Z,17.53
2018-08-16T01:59:57.855Z,17.54
2018-08-16T02:00:57.840Z,17.55
2018-08-16T02:01:57.814Z,17.53
2018-08-16T02:02:57.789Z,17.53
2018-08-16T02:03:57.768Z,17.51
2018-08-16T02:04:57.836Z,17.53
2018-08-16T02:05:57.727Z,17.51
2018-08-16T02:06:57.745Z,17.54
2018-08-16T02:07:57.682Z,17.53
2018-08-16T02:08:57.760Z,17.53
2018-08-16T02:09:57.636Z,17.51
2018-08-16T02:10:57.672Z,17.48
2018-08-16T02:11:57.589Z,17.41
2018-08-16T02:12:57.687Z,17.40
2018-08-16T02:13:57.548Z,17.35
2018-08-16T02:14:57.598Z,17.43
2018-08-16T02:15:57.502Z,17.35
2018-08-16T02:16:57.510Z,17.36
2018-08-16T02:17:57.472Z,17.43
2018-08-16T02:18:57.432Z,17.36
2018-08-16T02:19:57.427Z,17.33
2018-08-16T02:20:57.396Z,17.35
2018-08-16T02:21:57.445Z,17.41
2018-08-16T02:22:57.347Z,17.38
2018-08-16T02:23:57.353Z,17.41
2018-08-16T02:24:57.299Z,17.40
2018-08-16T02:25:57.368Z,17.32
2018-08-16T02:26:57.260Z,17.28
2018-08-16T02:27:57.280Z,17.25
2018-08-16T02:28:57.286Z,17.35
2018-08-16T02:29:57.188Z,17.25
2018-08-16T02:30:57.197Z,17.28
2018-08-16T02:31:57.143Z,17.36
2018-08-16T02:32:57.212Z,17.23
2018-08-16T02:33:57.101Z,17.25
2018-08-16T02:34:57.126Z,17.26
2018-08-16T02:35:57.059Z,17.33
2018-08-16T02:36:57.138Z,17.33
2018-08-16T02:37:57.016Z,17.23
2018-08-16T02:38:57.048Z,17.28
2018-08-16T02:39:56.966Z,17.07
2018-08-16T02:40:56.963Z,17.07
2018-08-16T02:41:56.927Z,17.08
2018-08-16T02:42:56.976Z,17.08
2018-08-16T02:43:56.874Z,17.17
2018-08-16T02:44:56.891Z,17.17
2018-08-16T02:45:56.833Z,17.08
2018-08-16T02:46:56.898Z,17.14
2018-08-16T02:47:56.787Z,17.13
2018-08-16T02:48:56.770Z,17.17
2018-08-16T02:49:56.739Z,17.17
2018-08-16T02:50:56.883Z,17.17
2018-08-16T02:51:56.696Z,17.04
2018-08-16T02:52:56.741Z,17.15
2018-08-16T02:53:56.647Z,17.07
2018-08-16T02:54:56.631Z,17.08
2018-08-16T02:55:56.658Z,17.04
2018-08-16T02:56:56.589Z,17.10
2018-08-16T02:57:56.675Z,17.07
2018-08-16T02:58:56.540Z,17.11
2018-08-16T02:59:56.586Z,17.06
2018-08-16T03:00:56.495Z,16.99
2018-08-16T03:01:56.508Z,17.08
2018-08-16T03:02:56.505Z,17.07
2018-08-16T03:03:56.427Z,16.98
2018-08-16T03:04:56.522Z,16.99
2018-08-16T03:05:56.389Z,16.92
2018-08-16T03:06:56.428Z,16.90
2018-08-16T03:07:56.335Z,16.88
2018-08-16T03:08:56.341Z,16.81
2018-08-16T03:09:56.294Z,16.85
2018-08-16T03:10:56.355Z,16.89
2018-08-16T03:11:56.254Z,16.83
2018-08-16T03:12:56.268Z,16.83
2018-08-16T03:13:56.213Z,16.86
2018-08-16T03:14:56.284Z,16.81
2018-08-16T03:15:56.158Z,16.73
2018-08-16T03:16:56.228Z,16.78
2018-08-16T03:17:56.113Z,16.75
2018-08-16T03:18:56.137Z,16.71
2018-08-16T03:19:56.069Z,16.74
2018-08-16T03:20:56.120Z,16.78
2018-08-16T03:21:56.023Z,16.73
2018-08-16T03:22:56.030Z,16.74
2018-08-16T03:23:55.975Z,16.75
2018-08-16T03:24:56.047Z,16.70
2018-08-16T03:25:55.934Z,16.65
2018-08-16T03:26:55.960Z,16.65
2018-08-16T03:27:55.888Z,16.62
2018-08-16T03:28:55.974Z,16.60
2018-08-16T03:29:55.842Z,16.68
2018-08-16T03:30:55.888Z,16.58
2018-08-16T03:31:55.799Z,16.50
2018-08-16T03:32:55.797Z,16.48
2018-08-16T03:33:55.758Z,16.62
2018-08-16T03:34:55.812Z,16.58
2018-08-16T03:35:55.711Z,16.55
2018-08-16T03:36:55.724Z,16.53
2018-08-16T03:37:55.664Z,16.49
2018-08-16T03:38:55.738Z,16.48
2018-08-16T03:39:55.619Z,16.44
2018-08-16T03:40:55.596Z,16.38
2018-08-16T03:41:55.571Z,16.41
2018-08-16T03:42:55.660Z,16.35
2018-08-16T03:43:55.534Z,16.35
2018-08-16T03:44:55.577Z,16.37
2018-08-16T03:45:55.489Z,16.37
2018-08-16T03:46:55.486Z,16.40
2018-08-16T03:47:55.436Z,16.38
2018-08-16T03:48:55.502Z,16.34
2018-08-16T03:49:55.393Z,16.35
2018-08-16T03:50:55.414Z,16.38
2018-08-16T03:51:55.348Z,16.35
2018-08-16T03:52:55.435Z,16.30
2018-08-16T03:53:55.303Z,16.22
2018-08-16T03:54:55.341Z,16.22
2018-08-16T03:55:55.255Z,16.26
2018-08-16T03:56:55.264Z,16.27
2018-08-16T03:57:55.257Z,16.23
2018-08-16T03:58:55.266Z,16.22
2018-08-16T03:59:55.169Z,16.23
2018-08-16T04:00:55.177Z,16.22
2018-08-16T04:01:55.120Z,16.18
2018-08-16T04:02:55.102Z,16.16
2018-08-16T04:03:55.112Z,16.18
2018-08-16T04:04:55.108Z,16.20
2018-08-16T04:05:55.035Z,16.15
2018-08-16T04:06:55.117Z,16.11
2018-08-16T04:07:54.994Z,16.14
2018-08-16T04:08:54.965Z,16.16
2018-08-16T04:09:55.037Z,16.15
2018-08-16T04:10:54.915Z,16.09
2018-08-16T04:11:54.948Z,16.11
2018-08-16T04:12:54.881Z,16.15
2018-08-16T04:13:54.849Z,16.25
2018-08-16T04:14:54.868Z,16.26
2018-08-16T04:15:54.807Z,16.26
2018-08-16T04:16:55.828Z,16.23
2018-08-16T04:17:54.756Z,16.25
2018-08-16T04:18:54.739Z,16.34
2018-08-16T04:19:54.802Z,16.27
2018-08-16T04:20:54.695Z,16.15
2018-08-16T04:21:54.713Z,16.15
2018-08-16T04:22:54.643Z,16.11
2018-08-16T04:23:54.726Z,16.15
2018-08-16T04:24:54.599Z,16.11
2018-08-16T04:25:54.637Z,16.15
2018-08-16T04:26:54.555Z,16.14
2018-08-16T04:27:54.550Z,16.15
2018-08-16T04:28:54.512Z,16.12
2018-08-16T04:29:54.484Z,16.07
2018-08-16T04:30:54.463Z,16.06
2018-08-16T04:31:54.478Z,16.03
2018-08-16T04:32:54.418Z,16.03
2018-08-16T04:33:54.492Z,16.09
2018-08-16T04:34:54.395Z,15.99
2018-08-16T04:35:54.348Z,16.00
2018-08-16T04:36:54.418Z,15.99
2018-08-16T04:37:54.303Z,15.99
2018-08-16T04:38:54.338Z,15.93
2018-08-16T04:39:54.262Z,16.03
2018-08-16T04:40:54.337Z,15.99
2018-08-16T04:41:54.410Z,15.96
2018-08-16T04:42:54.246Z,16.00
2018-08-16T04:43:54.168Z,15.97
2018-08-16T04:44:54.259Z,16.00
2018-08-16T04:45:54.134Z,16.00
2018-08-16T04:46:54.173Z,16.11
2018-08-16T04:47:54.074Z,16.03
2018-08-16T04:48:54.091Z,16.18
2018-08-16T04:49:54.024Z,16.11
2018-08-16T04:50:54.094Z,16.06
2018-08-16T04:51:53.999Z,16.11
2018-08-16T04:52:54.009Z,16.22
2018-08-16T04:53:53.954Z,16.18
2018-08-16T04:54:54.023Z,16.31
2018-08-16T04:55:53.928Z,16.23
2018-08-16T04:56:53.932Z,16.30
2018-08-16T04:57:53.943Z,16.22
2018-08-16T04:58:53.821Z,16.31
2018-08-16T04:59:53.862Z,16.26
2018-08-16T05:00:53.778Z,16.37
2018-08-16T05:01:53.870Z,16.27
2018-08-16T05:02:53.734Z,16.35
2018-08-16T05:03:53.786Z,16.34
2018-08-16T05:04:53.687Z,16.35
2018-08-16T05:05:53.698Z,16.34
2018-08-16T05:06:53.643Z,16.40
2018-08-16T05:07:53.707Z,16.42
2018-08-16T05:08:53.595Z,16.44
2018-08-16T05:09:53.624Z,16.37
2018-08-16T05:10:53.555Z,16.37
2018-08-16T05:11:53.544Z,16.48
2018-08-16T05:12:53.539Z,16.40
2018-08-16T05:13:53.486Z,16.45
2018-08-16T05:14:53.556Z,16.50
2018-08-16T05:15:53.437Z,16.49
2018-08-16T05:16:53.463Z,16.52
2018-08-16T05:17:53.392Z,16.59
2018-08-16T05:18:53.480Z,16.53
2018-08-16T05:19:53.352Z,16.63
2018-08-16T05:20:53.392Z,16.56
2018-08-16T05:21:53.307Z,16.65
2018-08-16T05:22:53.301Z,16.67
2018-08-16T05:23:53.305Z,16.62
2018-08-16T05:24:53.317Z,16.65
2018-08-16T05:25:53.208Z,16.62
2018-08-16T05:26:53.229Z,16.68
2018-08-16T05:27:53.167Z,16.62
2018-08-16T05:28:53.243Z,16.67
2018-08-16T05:29:53.123Z,16.70
2018-08-16T05:30:53.156Z,16.70
2018-08-16T05:31:53.076Z,16.71
2018-08-16T05:32:53.047Z,16.68
2018-08-16T05:33:53.075Z,16.77
2018-08-16T05:34:53.008Z,16.81
2018-08-16T05:35:53.095Z,16.86
2018-08-16T05:36:52.961Z,16.85
2018-08-16T05:37:53.000Z,16.81
2018-08-16T05:38:52.912Z,16.83
2018-08-16T05:39:52.916Z,16.89
2018-08-16T05:40:52.870Z,16.86
2018-08-16T05:41:52.928Z,16.92
2018-08-16T05:42:52.875Z,16.92
2018-08-16T05:43:52.840Z,16.95
2018-08-16T05:44:52.777Z,16.99
2018-08-16T05:45:52.862Z,16.99
2018-08-16T05:46:52.732Z,16.99
2018-08-16T05:47:52.770Z,17.06
2018-08-16T05:48:52.689Z,17.10
2018-08-16T05:49:52.785Z,17.07
2018-08-16T05:50:52.707Z,17.06
2018-08-16T05:51:52.691Z,17.03
2018-08-16T05:52:52.598Z,17.10
2018-08-16T05:53:52.607Z,17.13
2018-08-16T05:54:52.558Z,17.10
2018-08-16T05:55:52.630Z,17.20
2018-08-16T05:56:52.503Z,17.25
2018-08-16T05:57:52.535Z,17.29
2018-08-16T05:58:52.457Z,17.26
2018-08-16T05:59:52.550Z,17.22
2018-08-16T06:00:52.413Z,17.32
2018-08-16T06:01:52.459Z,17.41
2018-08-16T06:02:52.370Z,17.35
2018-08-16T06:03:52.367Z,17.41
2018-08-16T06:04:52.320Z,17.48
2018-08-16T06:05:52.325Z,17.46
2018-08-16T06:06:52.280Z,17.50
2018-08-16T06:07:52.309Z,17.55
2018-08-16T06:08:52.230Z,17.55
2018-08-16T06:09:52.307Z,17.63
2018-08-16T06:10:52.185Z,17.63
2018-08-16T06:11:52.217Z,17.71
2018-08-16T06:12:52.142Z,17.76
2018-08-16T06:13:52.240Z,17.73
2018-08-16T06:14:52.099Z,17.84
2018-08-16T06:15:52.141Z,17.82
2018-08-16T06:16:52.054Z,17.82
2018-08-16T06:17:52.060Z,17.79
2018-08-16T06:18:52.009Z,17.84
2018-08-16T06:19:52.072Z,17.94
2018-08-16T06:20:51.967Z,17.91
2018-08-16T06:21:51.984Z,18.06
2018-08-16T06:22:51.914Z,18.12
2018-08-16T06:23:51.999Z,18.09
2018-08-16T06:24:51.873Z,18.06
2018-08-16T06:25:51.911Z,18.15
2018-08-16T06:26:51.825Z,18.17
2018-08-16T06:27:51.817Z,18.18
2018-08-16T06:28:51.779Z,18.21
2018-08-16T06:29:51.759Z,18.24
2018-08-16T06:30:51.842Z,18.28
2018-08-16T06:31:51.712Z,18.36
2018-08-16T06:32:51.750Z,18.37
2018-08-16T06:33:51.666Z,18.42
2018-08-16T06:34:51.666Z,18.44
2018-08-16T06:35:51.634Z,18.46
2018-08-16T06:36:51.679Z,18.44
2018-08-16T06:37:51.588Z,18.49
2018-08-16T06:38:51.638Z,18.52
2018-08-16T06:39:51.534Z,18.58
2018-08-16T06:40:51.602Z,18.67
2018-08-16T06:41:51.489Z,18.65
2018-08-16T06:42:51.543Z,18.74
2018-08-16T06:43:51.482Z,18.68
2018-08-16T06:44:51.534Z,18.64
2018-08-16T06:45:51.409Z,18.72
2018-08-16T06:46:51.445Z,18.76
2018-08-16T06:47:51.353Z,18.77
2018-08-16T06:48:51.358Z,18.77
2018-08-16T06:49:51.321Z,18.84
2018-08-16T06:50:51.371Z,18.87
2018-08-16T06:51:51.269Z,18.91
2018-08-16T06:52:51.295Z,19.01
2018-08-16T06:53:51.226Z,19.08
2018-08-16T06:54:51.326Z,19.01
2018-08-16T06:55:51.183Z,19.01
2018-08-16T06:56:51.205Z,19.17
2018-08-16T06:57:51.133Z,19.11
2018-08-16T06:58:51.220Z,19.17
2018-08-16T06:59:51.087Z,19.18
2018-08-16T07:00:51.135Z,19.20
2018-08-16T07:01:51.066Z,19.33
2018-08-16T07:02:51.031Z,19.40
2018-08-16T07:03:51.050Z,19.36
2018-08-16T07:04:51.002Z,19.36
2018-08-16T07:05:51.068Z,19.43
2018-08-16T07:06:50.933Z,19.50
2018-08-16T07:07:50.980Z,19.58
2018-08-16T07:08:50.896Z,19.57
2018-08-16T07:09:50.891Z,19.55
2018-08-16T07:10:50.849Z,19.66
2018-08-16T07:11:50.954Z,19.66
2018-08-16T07:12:50.805Z,19.66
2018-08-16T07:13:50.812Z,19.68
2018-08-16T07:14:50.757Z,19.78
2018-08-16T07:15:50.820Z,19.79
2018-08-16T07:16:50.717Z,19.76
2018-08-16T07:17:50.739Z,19.79
2018-08-16T07:18:50.714Z,19.87
2018-08-16T07:19:50.802Z,19.87
2018-08-16T07:20:50.628Z,19.86
2018-08-16T07:21:50.639Z,19.90
2018-08-16T07:22:50.586Z,19.91
2018-08-16T07:23:51.603Z,19.87
2018-08-16T07:24:50.625Z,19.94
2018-08-16T07:25:50.589Z,19.97
2018-08-16T07:26:50.499Z,20.03
2018-08-16T07:27:50.479Z,19.95
2018-08-16T07:28:50.516Z,20.10
2018-08-16T07:29:50.439Z,20.18
2018-08-16T07:30:50.525Z,20.16
2018-08-16T07:31:50.391Z,20.23
2018-08-16T07:32:50.439Z,20.21
2018-08-16T07:33:50.344Z,20.16
2018-08-16T07:34:50.356Z,20.20
2018-08-16T07:35:50.308Z,20.23
2018-08-16T07:36:50.362Z,20.27
2018-08-16T07:37:50.263Z,20.28
2018-08-16T07:38:50.277Z,20.35
2018-08-16T07:39:50.217Z,20.46
2018-08-16T07:40:50.288Z,20.50
2018-08-16T07:41:50.183Z,20.58
2018-08-16T07:42:50.201Z,20.58
2018-08-16T07:43:50.140Z,20.50
2018-08-16T07:44:50.214Z,20.65
2018-08-16T07:45:50.248Z,20.62
2018-08-16T07:46:50.125Z,20.69
2018-08-16T07:47:50.043Z,20.66
2018-08-16T07:48:50.142Z,20.66
2018-08-16T07:49:50.028Z,20.76
2018-08-16T07:50:50.053Z,20.77
2018-08-16T07:51:49.965Z,20.72
2018-08-16T07:52:49.963Z,20.79
2018-08-16T07:53:49.911Z,20.83
2018-08-16T07:54:49.977Z,20.95
2018-08-16T07:55:49.882Z,20.96
2018-08-16T07:56:49.895Z,20.93
2018-08-16T07:57:49.844Z,20.99
2018-08-16T07:58:49.905Z,21.04
2018-08-16T07:59:49.796Z,21.04
2018-08-16T08:00:49.821Z,21.06
2018-08-16T08:01:49.755Z,21.23
2018-08-16T08:02:49.830Z,21.32
2018-08-16T08:03:49.722Z,21.34
2018-08-16T08:04:49.745Z,21.34
2018-08-16T08:05:49.678Z,21.34
2018-08-16T08:06:49.760Z,21.36
2018-08-16T08:07:49.635Z,21.39
2018-08-16T08:08:49.689Z,21.44
2018-08-16T08:09:49.672Z,21.46
2018-08-16T08:10:49.584Z,21.57
2018-08-16T08:11:49.546Z,21.61
2018-08-16T08:12:49.598Z,21.64
2018-08-16T08:13:49.505Z,21.57
2018-08-16T08:14:49.509Z,21.60
2018-08-16T08:15:49.462Z,21.66
2018-08-16T08:16:49.524Z,21.69
2018-08-16T08:17:49.425Z,21.75
2018-08-16T08:18:49.437Z,21.74
2018-08-16T08:19:49.384Z,21.76
2018-08-16T08:20:49.450Z,21.78
2018-08-16T08:21:49.342Z,21.81
2018-08-16T08:22:49.363Z,21.95
2018-08-16T08:23:49.301Z,21.99
2018-08-16T08:24:49.393Z,21.99
2018-08-16T08:25:49.259Z,22.06
2018-08-16T08:26:49.291Z,22.12
2018-08-16T08:27:49.225Z,22.10
2018-08-16T08:28:49.300Z,22.22
2018-08-16T08:29:49.180Z,22.16
2018-08-16T08:30:49.226Z,22.22
2018-08-16T08:31:49.148Z,22.20
2018-08-16T08:32:49.231Z,22.29
2018-08-16T08:33:49.103Z,22.28
2018-08-16T08:34:49.142Z,22.28
2018-08-16T08:35:49.063Z,22.35
2018-08-16T08:36:49.157Z,22.38
2018-08-16T08:37:49.019Z,22.44
2018-08-16T08:38:49.087Z,22.50
2018-08-16T08:39:48.981Z,22.57
2018-08-16T08:40:49.082Z,22.62
2018-08-16T08:41:48.943Z,22.67
2018-08-16T08:42:48.992Z,22.68
2018-08-16T08:43:48.902Z,22.75
2018-08-16T08:44:48.906Z,22.71
2018-08-16T08:45:48.864Z,22.77
2018-08-16T08:46:48.918Z,22.82
2018-08-16T08:47:48.829Z,22.82
2018-08-16T08:48:48.829Z,22.82
2018-08-16T08:49:48.778Z,22.84
2018-08-16T08:50:48.842Z,22.84
2018-08-16T08:51:48.749Z,22.94
2018-08-16T08:52:48.788Z,22.94
2018-08-16T08:53:48.703Z,22.90
2018-08-16T08:54:48.769Z,23.02
2018-08-16T08:55:48.669Z,22.87
2018-08-16T08:56:48.680Z,22.86
2018-08-16T08:57:48.695Z,22.94
2018-08-16T08:58:48.609Z,22.86
2018-08-16T08:59:48.706Z,22.87
2018-08-16T09:00:48.576Z,22.86
2018-08-16T09:01:48.616Z,22.99
2018-08-16T09:02:48.530Z,22.97
2018-08-16T09:03:48.531Z,22.99
2018-08-16T09:04:48.498Z,23.09
2018-08-16T09:05:48.570Z,23.17
2018-08-16T09:06:48.485Z,23.12
2018-08-16T09:07:48.513Z,23.34
2018-08-16T09:08:48.427Z,23.53
2018-08-16T09:09:48.470Z,23.53
2018-08-16T09:10:48.377Z,23.70
2018-08-16T09:11:48.380Z,23.70
2018-08-16T09:12:48.346Z,23.71
2018-08-16T09:13:48.393Z,23.71
2018-08-16T09:14:48.332Z,23.68
2018-08-16T09:15:48.305Z,23.75
2018-08-16T09:16:48.275Z,23.87
2018-08-16T09:17:48.319Z,23.85
2018-08-16T09:18:48.231Z,23.80
2018-08-16T09:19:48.229Z,23.94
2018-08-16T09:20:48.197Z,24.08
2018-08-16T09:21:48.247Z,24.38
2018-08-16T09:22:48.153Z,24.41
2018-08-16T09:23:48.153Z,24.54
2018-08-16T09:24:48.122Z,24.57
2018-08-16T09:25:48.169Z,24.68
2018-08-16T09:26:48.789Z,24.76
2018-08-16T09:27:48.089Z,24.57
2018-08-16T09:28:48.046Z,24.68
2018-08-16T09:29:48.092Z,24.53
2018-08-16T09:30:48.003Z,24.39
2018-08-16T09:31:48.009Z,24.57
2018-08-16T09:32:47.970Z,24.53
2018-08-16T09:33:48.022Z,24.57
2018-08-16T09:34:47.930Z,24.53
2018-08-16T09:35:47.937Z,24.60
2018-08-16T09:36:47.895Z,24.75
2018-08-16T09:37:47.947Z,24.85
2018-08-16T09:38:47.855Z,24.85
2018-08-16T09:39:47.873Z,24.87
2018-08-16T09:40:47.825Z,24.69
2018-08-16T09:41:47.873Z,24.75
2018-08-16T09:42:47.779Z,24.73
2018-08-16T09:43:47.785Z,24.90
2018-08-16T09:44:47.745Z,24.85
2018-08-16T09:45:47.849Z,25.07
2018-08-16T09:46:47.715Z,25.15
2018-08-16T09:47:47.700Z,25.05
2018-08-16T09:48:47.718Z,25.01
2018-08-16T09:49:47.648Z,25.02
2018-08-16T09:50:47.734Z,25.06
2018-08-16T09:51:47.695Z,24.88
2018-08-16T09:52:47.643Z,24.95
2018-08-16T09:53:47.588Z,25.02
2018-08-16T09:54:47.681Z,25.24
2018-08-16T09:55:47.550Z,25.69
2018-08-16T09:56:47.572Z,26.11
2018-08-16T09:57:47.515Z,26.55
2018-08-16T09:58:47.584Z,26.72
2018-08-16T09:59:47.478Z,26.83
2018-08-16T10:00:47.496Z,27.04
2018-08-16T10:01:47.441Z,27.23
2018-08-16T10:02:47.513Z,27.28
2018-08-16T10:03:47.401Z,27.43
2018-08-16T10:04:47.388Z,27.41
2018-08-16T10:05:47.428Z,27.17
2018-08-16T10:06:47.464Z,27.29
2018-08-16T10:07:47.334Z,27.41
2018-08-16T10:08:47.453Z,27.57
2018-08-16T10:09:47.359Z,27.59
2018-08-16T10:10:47.281Z,27.59
2018-08-16T10:11:47.370Z,27.54
2018-08-16T10:12:47.257Z,27.57
2018-08-16T10:13:47.389Z,27.77
2018-08-16T10:14:47.219Z,27.79
2018-08-16T10:15:47.300Z,27.62
2018-08-16T10:16:47.188Z,27.54
2018-08-16T10:17:47.310Z,27.69
2018-08-16T10:18:47.153Z,27.71
2018-08-16T10:19:47.224Z,27.38
2018-08-16T10:20:47.145Z,27.41
2018-08-16T10:21:48.160Z,27.41
2018-08-16T10:22:47.081Z,27.41
2018-08-16T10:23:47.150Z,27.62
2018-08-16T10:24:47.049Z,27.84
2018-08-16T10:25:47.065Z,27.98
2018-08-16T10:26:47.018Z,28.10
2018-08-16T10:27:47.109Z,27.91
2018-08-16T10:28:46.982Z,27.76
2018-08-16T10:29:46.986Z,27.42
2018-08-16T10:30:46.950Z,27.48
2018-08-16T10:31:47.005Z,27.71
2018-08-16T10:32:46.918Z,27.91
2018-08-16T10:33:46.916Z,28.16
2018-08-16T10:34:46.916Z,28.41
2018-08-16T10:35:46.868Z,28.56
2018-08-16T10:36:46.935Z,28.73
2018-08-16T10:37:46.836Z,28.77
2018-08-16T10:38:46.845Z,28.13
2018-08-16T10:39:46.806Z,27.80
2018-08-16T10:40:46.791Z,27.74
2018-08-16T10:41:46.859Z,27.82
2018-08-16T10:42:46.757Z,27.85
2018-08-16T10:43:46.775Z,28.04
2018-08-16T10:44:46.727Z,28.46
2018-08-16T10:45:46.794Z,28.80
2018-08-16T10:46:46.690Z,29.13
2018-08-16T10:47:46.712Z,28.87
2018-08-16T10:48:46.662Z,28.59
2018-08-16T10:49:46.726Z,28.59
2018-08-16T10:50:46.635Z,28.73
2018-08-16T10:51:46.735Z,28.65
2018-08-16T10:52:46.610Z,28.58
2018-08-16T10:53:46.652Z,28.62
2018-08-16T10:54:46.575Z,28.38
2018-08-16T10:55:46.660Z,28.68
2018-08-16T10:56:46.544Z,29.00
2018-08-16T10:57:46.576Z,29.10
2018-08-16T10:58:46.513Z,29.10
2018-08-16T10:59:46.583Z,28.80
2018-08-16T11:00:46.480Z,28.82
2018-08-16T11:01:46.502Z,28.43
2018-08-16T11:02:46.453Z,28.29
2018-08-16T11:03:46.516Z,28.21
2018-08-16T11:04:46.427Z,28.09
2018-08-16T11:05:46.406Z,27.61
2018-08-16T11:06:46.431Z,27.76
2018-08-16T11:07:46.378Z,28.09
2018-08-16T11:08:46.448Z,28.10
2018-08-16T11:09:46.350Z,28.06
2018-08-16T11:10:46.361Z,27.73
2018-08-16T11:11:46.315Z,28.03
2018-08-16T11:12:46.372Z,28.26
2018-08-16T11:13:46.290Z,27.89
2018-08-16T11:14:46.387Z,27.77
2018-08-16T11:15:46.258Z,27.82
2018-08-16T11:16:46.298Z,27.82
2018-08-16T11:17:46.229Z,27.95
2018-08-16T11:18:46.379Z,28.14
2018-08-16T11:19:46.192Z,28.26
2018-08-16T11:20:46.228Z,28.36
2018-08-16T11:21:46.166Z,28.66
2018-08-16T11:22:46.239Z,28.40
2018-08-16T11:23:46.144Z,28.47
2018-08-16T11:24:46.156Z,28.69
2018-08-16T11:25:46.107Z,28.73
2018-08-16T11:26:46.167Z,28.77
2018-08-16T11:27:46.084Z,28.75
2018-08-16T11:28:46.182Z,28.93
2018-08-16T11:29:46.045Z,29.04
2018-08-16T11:30:46.095Z,29.28
2018-08-16T11:31:46.021Z,29.40
2018-08-16T11:32:46.107Z,29.37
2018-08-16T11:33:45.987Z,29.34
2018-08-16T11:34:46.023Z,29.06
2018-08-16T11:35:45.964Z,28.84
2018-08-16T11:36:46.033Z,28.91
2018-08-16T11:37:45.989Z,29.15
2018-08-16T11:38:45.943Z,29.28
2018-08-16T11:39:45.906Z,29.08
2018-08-16T11:40:46.014Z,28.90
2018-08-16T11:41:45.876Z,29.28
2018-08-16T11:42:45.971Z,29.52
2018-08-16T11:43:45.857Z,29.78
2018-08-16T11:44:45.886Z,29.86
2018-08-16T11:45:45.821Z,29.86
2018-08-16T11:46:45.901Z,30.16
2018-08-16T11:47:45.793Z,30.40
2018-08-16T11:48:45.810Z,30.23
2018-08-16T11:49:45.762Z,30.02
2018-08-16T11:50:45.824Z,29.74
2018-08-16T11:51:45.740Z,29.81
2018-08-16T11:52:45.736Z,29.71
2018-08-16T11:53:45.711Z,29.28
2018-08-16T11:54:45.741Z,29.16
2018-08-16T11:55:45.690Z,29.08
2018-08-16T11:56:45.758Z,29.34
2018-08-16T11:57:45.653Z,29.47
2018-08-16T11:58:45.768Z,29.74
2018-08-16T11:59:45.628Z,29.79
2018-08-16T12:00:45.688Z,29.96
2018-08-16T12:01:45.618Z,29.87
2018-08-16T12:02:45.603Z,29.66
2018-08-16T12:03:45.576Z,29.38
2018-08-16T12:04:45.613Z,29.28
2018-08-16T12:05:45.542Z,29.25
2018-08-16T12:06:45.633Z,29.33
2018-08-16T12:07:45.513Z,29.35
2018-08-16T12:08:45.540Z,29.49
2018-08-16T12:09:45.491Z,29.35
2018-08-16T12:10:45.554Z,29.16
2018-08-16T12:11:45.472Z,28.68
2018-08-16T12:12:45.469Z,28.63
2018-08-16T12:13:45.440Z,28.82
2018-08-16T12:14:45.511Z,29.10
2018-08-16T12:15:45.410Z,29.13
2018-08-16T12:16:45.506Z,29.15
2018-08-16T12:17:45.370Z,29.16
2018-08-16T12:18:45.420Z,29.34
2018-08-16T12:19:45.354Z,29.55
2018-08-16T12:20:45.423Z,29.81
2018-08-16T12:21:45.331Z,30.03
2018-08-16T12:22:45.346Z,30.09
2018-08-16T12:23:45.302Z,30.15
2018-08-16T12:24:45.340Z,29.99
2018-08-16T12:25:45.273Z,29.60
2018-08-16T12:26:45.368Z,29.57
2018-08-16T12:27:45.269Z,29.74
2018-08-16T12:28:45.278Z,29.81
2018-08-16T12:29:45.220Z,29.93
2018-08-16T12:30:45.295Z,30.09
2018-08-16T12:31:45.202Z,30.02
2018-08-16T12:32:45.201Z,30.18
2018-08-16T12:33:45.167Z,30.26
2018-08-16T12:34:45.236Z,30.12
2018-08-16T12:35:45.147Z,30.15
2018-08-16T12:36:45.231Z,29.99
2018-08-16T12:37:45.152Z,29.84
2018-08-16T12:38:45.142Z,29.84
2018-08-16T12:39:45.219Z,29.70
2018-08-16T12:40:45.205Z,29.53
2018-08-16T12:41:45.059Z,29.63
2018-08-16T12:42:45.073Z,29.35
2018-08-16T12:43:45.029Z,29.28
2018-08-16T12:44:45.084Z,29.50
2018-08-16T12:45:45.014Z,29.78
2018-08-16T12:46:45.111Z,29.87
2018-08-16T12:47:45.026Z,30.16
2018-08-16T12:48:45.010Z,30.31
2018-08-16T12:49:44.949Z,30.49
2018-08-16T12:50:45.029Z,30.68
2018-08-16T12:51:44.924Z,30.71